Time;durP1;ratioP1;P1;durP2;ratioP2;P2;SDS_P1;SDS_P2;PMS_P1;PMS_P2;Temp;Humidity;BMP_temperature;BMP_pressure;BME280_temperature;BME280_humidity;BME280_pressure;Samples;Min_cycle;Max_cycle;Signal;HPM_P1;HPM_P2
2023/08/18 04:25:36;;;;;;;6.03;2.10;;;;;;;;;;5107022;27;20213;-87
2023/08/18 04:28:04;;;;;;;2.45;1.88;;;;;;;;;;5108847;28;20055;-87
2023/08/18 04:30:32;;;;;;;1.67;1.25;;;;;;;;;;5104474;28;20084;-89
2023/08/18 04:32:57;;;;;;;1.45;1.23;;;;;;;;;;5105794;28;20107;-87
2023/08/18 04:39:19;;;;;;;;;;;;;;;;;;;;;
2023/08/18 04:41:16;;;;;;;1.15;1.02;;;;;;;;;;5089286;28;20535;-89
2023/08/18 04:43:44;;;;;;;4.22;2.20;;;;;;;;;;5109909;28;20019;-91
2023/08/18 04:46:10;;;;;;;2.22;1.80;;;;;;;;;;5108848;28;20030;-90
2023/08/18 04:48:38;;;;;;;10.10;1.88;;;;;;;;;;5109374;28;20479;-88
2023/08/18 04:51:06;;;;;;;3.38;1.83;;;;;;;;;;5108833;28;20423;-89
2023/08/18 04:53:32;;;;;;;2.05;1.27;;;;;;;;;;5107689;28;20032;-89
2023/08/18 04:56:15;;;;;;;3.08;1.65;;;;;;;;;;5101142;28;20532;-90
2023/08/18 04:59:04;;;;;;;0.88;0.80;;;;;;;;;;5106697;28;20024;-88
2023/08/18 05:01:33;;;;;;;1.90;1.13;;;;;;;;;;5107088;28;20040;-89
2023/08/18 05:03:58;;;;;;;0.73;0.68;;;;;;;;;;5108929;28;20493;-87
2023/08/18 05:06:24;;;;;;;3.42;1.52;;;;;;;;;;5103009;28;20035;-90
2023/08/18 05:08:49;;;;;;;1.30;1.20;;;;;;;;;;5104296;28;20028;-89
2023/08/18 05:11:15;;;;;;;1.45;1.15;;;;;;;;;;5100868;28;20031;-86
2023/08/18 05:13:42;;;;;;;1.67;1.17;;;;;;;;;;5107748;28;20106;-92
2023/08/18 05:16:07;;;;;;;2.67;1.85;;;;;;;;;;5108744;28;20489;-93
2023/08/18 05:18:33;;;;;;;1.52;1.27;;;;;;;;;;5104019;28;20020;-94
2023/08/18 05:21:00;;;;;;;2.13;1.52;;;;;;;;;;5105717;28;20054;-89
2023/08/18 05:23:26;;;;;;;1.85;1.25;;;;;;;;;;5109321;28;20036;-89
2023/08/18 05:25:56;;;;;;;5.40;1.55;;;;;;;;;;5109949;28;20115;-88
2023/08/18 05:28:22;;;;;;;;;;;;;;;;;;5108809;28;20023;-88
2023/08/18 05:30:48;;;;;;;1.33;1.20;;;;;;;;;;5106902;28;19980;-90
2023/08/18 05:33:14;;;;;;;1.30;1.20;;;;;;;;;;5100529;28;20031;-88
2023/08/18 05:35:40;;;;;;;2.30;1.60;;;;;;;;;;5097647;28;20035;-92
2023/08/18 05:38:11;;;;;;;1.67;1.35;;;;;;;;;;5086320;28;20043;-92
2023/08/18 05:40:42;;;;;;;1.92;1.45;;;;;;;;;;5090260;28;20034;-89
2023/08/18 05:43:09;;;;;;;1.48;1.17;;;;;;;;;;5090107;28;20024;-88
2023/08/18 05:45:37;;;;;;;1.20;1.10;;;;;;;;;;5093297;28;20089;-89
2023/08/18 05:48:04;;;;;;;1.67;1.30;;;;;;;;;;5093217;28;20028;-88
2023/08/18 05:50:30;;;;;;;2.00;1.55;;;;;;;;;;5092657;28;20098;-90
2023/08/18 05:52:56;;;;;;;2.05;1.52;;;;;;;;;;5086910;28;20027;-86
2023/08/18 05:55:23;;;;;;;1.65;1.35;;;;;;;;;;5091529;28;20077;-87
2023/08/18 05:57:48;;;;;;;1.67;1.20;;;;;;;;;;5091508;28;20016;-86
2023/08/18 06:00:14;;;;;;;1.63;1.13;;;;;;;;;;5091464;28;20050;-88
2023/08/18 06:02:41;;;;;;;1.45;1.27;;;;;;;;;;5094430;28;20031;-88
2023/08/18 06:05:07;;;;;;;1.90;1.00;;;;;;;;;;5081155;28;20016;-89
2023/08/18 06:07:32;;;;;;;1.60;1.20;;;;;;;;;;5090665;28;20032;-90
2023/08/18 06:09:58;;;;;;;2.00;1.20;;;;;;;;;;5093675;28;20182;-86
2023/08/18 06:12:23;;;;;;;4.50;1.77;;;;;;;;;;5092970;28;20032;-88
2023/08/18 06:14:49;;;;;;;1.73;1.25;;;;;;;;;;5091459;28;20479;-88
2023/08/18 06:17:14;;;;;;;1.83;1.30;;;;;;;;;;5093424;28;20468;-89
2023/08/18 06:19:39;;;;;;;1.85;1.30;;;;;;;;;;5093668;28;20112;-88
2023/08/18 06:22:05;;;;;;;1.25;0.90;;;;;;;;;;5085772;28;20532;-88
2023/08/18 06:24:31;;;;;;;5.05;1.88;;;;;;;;;;5092654;28;20074;-89
2023/08/18 06:26:56;;;;;;;2.33;2.08;;;;;;;;;;5092906;28;20024;-87
2023/08/18 06:29:21;;;;;;;2.08;1.48;;;;;;;;;;5093450;28;20024;-87
2023/08/18 06:31:47;;;;;;;2.50;1.77;;;;;;;;;;5089902;28;20107;-85
2023/08/18 06:34:12;;;;;;;1.52;1.25;;;;;;;;;;5092065;28;20038;-87
2023/08/18 06:36:38;;;;;;;1.70;1.20;;;;;;;;;;5086488;28;20020;-88
2023/08/18 06:39:03;;;;;;;3.00;0.95;;;;;;;;;;5091378;28;20490;-88
2023/08/18 06:41:28;;;;;;;2.20;1.58;;;;;;;;;;5090397;28;20027;-88
2023/08/18 06:43:54;;;;;;;1.20;1.10;;;;;;;;;;5092728;28;20031;-87
2023/08/18 06:46:20;;;;;;;2.03;1.55;;;;;;;;;;5084077;28;20117;-87
2023/08/18 06:48:45;;;;;;;8.38;1.67;;;;;;;;;;5085787;28;20376;-89
2023/08/18 06:51:13;;;;;;;2.88;1.65;;;;;;;;;;5091075;28;20392;-89
2023/08/18 06:53:38;;;;;;;6.07;1.40;;;;;;;;;;5085128;28;20055;-86
2023/08/18 06:56:04;;;;;;;2.25;1.73;;;;;;;;;;5085405;28;20031;-87
2023/08/18 06:58:31;;;;;;;2.55;1.27;;;;;;;;;;5092095;28;20106;-86
2023/08/18 07:00:56;;;;;;;1.15;1.05;;;;;;;;;;5093039;28;20486;-88
2023/08/18 07:03:21;;;;;;;1.00;0.93;;;;;;;;;;5089928;28;20031;-91
2023/08/18 07:05:47;;;;;;;1.73;1.40;;;;;;;;;;5082239;28;20028;-89
2023/08/18 07:08:12;;;;;;;2.45;1.30;;;;;;;;;;5088025;28;20054;-86
2023/08/18 07:10:38;;;;;;;1.60;1.25;;;;;;;;;;5091714;28;20035;-90
2023/08/18 07:13:03;;;;;;;1.25;1.05;;;;;;;;;;5091514;28;20446;-86
2023/08/18 07:15:29;;;;;;;2.05;1.40;;;;;;;;;;5091929;28;20032;-87
2023/08/18 07:17:54;;;;;;;1.30;1.00;;;;;;;;;;5085612;28;20032;-87
2023/08/18 07:20:20;;;;;;;1.20;0.90;;;;;;;;;;5092309;28;20026;-88
2023/08/18 07:22:46;;;;;;;1.20;0.80;;;;;;;;;;5092089;28;20109;-89
2023/08/18 07:25:11;;;;;;;1.17;1.02;;;;;;;;;;5089648;28;20575;-89
2023/08/18 07:27:37;;;;;;;1.15;0.95;;;;;;;;;;5091987;28;20036;-89
2023/08/18 07:30:04;;;;;;;1.80;1.45;;;;;;;;;;5093477;28;20440;-87
2023/08/18 07:32:30;;;;;;;1.42;1.23;;;;;;;;;;5093120;28;20028;-87
2023/08/18 07:34:55;;;;;;;1.17;0.90;;;;;;;;;;5089822;28;20031;-88
2023/08/18 07:37:21;;;;;;;1.17;0.93;;;;;;;;;;5088016;28;20028;-90
2023/08/18 07:39:46;;;;;;;0.77;0.70;;;;;;;;;;5091502;28;20103;-89
2023/08/18 07:42:12;;;;;;;2.70;1.90;;;;;;;;;;5081518;28;20081;-88
2023/08/18 07:44:37;;;;;;;5.57;1.52;;;;;;;;;;5081302;28;20077;-89
2023/08/18 07:47:03;;;;;;;5.00;1.27;;;;;;;;;;5091479;28;20056;-88
2023/08/18 07:49:28;;;;;;;1.13;0.98;;;;;;;;;;5085995;28;20035;-88
2023/08/18 07:51:54;;;;;;;1.13;0.90;;;;;;;;;;5084390;28;20388;-90
2023/08/18 07:54:20;;;;;;;2.08;1.42;;;;;;;;;;5086982;28;20463;-88
2023/08/18 07:56:45;;;;;;;1.10;0.88;;;;;;;;;;5091199;28;20028;-91
2023/08/18 07:59:11;;;;;;;2.22;1.08;;;;;;;;;;5089835;28;20103;-92
2023/08/18 08:01:36;;;;;;;1.58;1.05;;;;;;;;;;5086184;28;20082;-87
2023/08/18 08:04:01;;;;;;;1.13;0.93;;;;;;;;;;5084290;28;20368;-83
2023/08/18 08:06:27;;;;;;;2.28;1.48;;;;;;;;;;5086933;28;20028;-84
2023/08/18 08:08:52;;;;;;;1.17;0.98;;;;;;;;;;5083515;28;20028;-83
2023/08/18 08:11:18;;;;;;;1.73;1.25;;;;;;;;;;5091053;28;20020;-83
2023/08/18 08:13:44;;;;;;;1.23;1.10;;;;;;;;;;5081487;28;20027;-84
2023/08/18 08:16:09;;;;;;;1.52;1.33;;;;;;;;;;5089516;28;20056;-83
2023/08/18 08:18:35;;;;;;;2.25;1.30;;;;;;;;;;5091416;28;20024;-85
2023/08/18 08:21:01;;;;;;;2.38;1.10;;;;;;;;;;5087839;28;20024;-84
2023/08/18 08:23:26;;;;;;;1.35;1.02;;;;;;;;;;5089862;28;20031;-83
2023/08/18 08:25:52;;;;;;;1.63;1.13;;;;;;;;;;5089382;28;20070;-85
2023/08/18 08:28:17;;;;;;;1.33;1.23;;;;;;;;;;5092118;28;20930;-85
2023/08/18 08:30:44;;;;;;;2.10;1.35;;;;;;;;;;5087667;28;20024;-87
2023/08/18 08:33:11;;;;;;;1.33;1.10;;;;;;;;;;5090828;28;20028;-83
2023/08/18 08:35:36;;;;;;;1.50;1.08;;;;;;;;;;5090205;28;20024;-84
2023/08/18 08:38:02;;;;;;;2.10;1.42;;;;;;;;;;5090439;28;20032;-83
2023/08/18 08:40:27;;;;;;;1.98;1.60;;;;;;;;;;5090741;28;20040;-83
2023/08/18 08:42:54;;;;;;;1.27;1.05;;;;;;;;;;5090292;28;20103;-82
2023/08/18 08:45:20;;;;;;;1.05;0.90;;;;;;;;;;5090393;28;20017;-83
2023/08/18 08:47:48;;;;;;;1.42;1.00;;;;;;;;;;5090136;28;20108;-84
2023/08/18 08:50:16;;;;;;;1.77;1.15;;;;;;;;;;5090161;28;20020;-86
2023/08/18 08:52:42;;;;;;;1.10;1.00;;;;;;;;;;5088653;28;20036;-83
2023/08/18 08:55:08;;;;;;;2.00;1.38;;;;;;;;;;5090686;28;20430;-84
2023/08/18 08:57:34;;;;;;;1.80;1.20;;;;;;;;;;5088986;28;20030;-84
2023/08/18 09:00:00;;;;;;;2.40;0.80;;;;;;;;;;5086587;28;20060;-85
2023/08/18 09:02:25;;;;;;;1.00;0.90;;;;;;;;;;5089361;28;20035;-84
2023/08/18 09:04:51;;;;;;;1.20;1.10;;;;;;;;;;5089757;28;20032;-85
2023/08/18 09:07:17;;;;;;;1.90;1.42;;;;;;;;;;5088346;28;20975;-85
2023/08/18 09:09:43;;;;;;;1.38;0.90;;;;;;;;;;5088054;28;20039;-84
2023/08/18 09:12:10;;;;;;;1.88;1.20;;;;;;;;;;5088488;28;20024;-84
2023/08/18 09:14:39;;;;;;;1.15;0.82;;;;;;;;;;5090741;28;20020;-85
2023/08/18 09:17:05;;;;;;;1.85;1.00;;;;;;;;;;5091569;28;20039;-84
2023/08/18 09:19:31;;;;;;;1.63;1.20;;;;;;;;;;5094083;28;20544;-85
2023/08/18 09:21:59;;;;;;;1.30;1.10;;;;;;;;;;5091988;28;20031;-84
2023/08/18 09:24:25;;;;;;;2.40;0.85;;;;;;;;;;5092843;28;20054;-84
2023/08/18 09:26:50;;;;;;;1.83;1.15;;;;;;;;;;5091862;28;20020;-85
2023/08/18 09:29:16;;;;;;;1.13;0.90;;;;;;;;;;5091762;28;20089;-84
2023/08/18 09:31:45;;;;;;;1.95;0.98;;;;;;;;;;5090608;28;20024;-83
2023/08/18 09:34:21;;;;;;;1.38;1.08;;;;;;;;;;5092145;28;20556;-85
2023/08/18 09:36:52;;;;;;;1.42;1.13;;;;;;;;;;5091507;28;20028;-84
2023/08/18 09:39:18;;;;;;;0.95;0.85;;;;;;;;;;5092773;28;20109;-84
2023/08/18 09:41:50;;;;;;;1.67;1.20;;;;;;;;;;5090610;28;20028;-84
2023/08/18 09:44:17;;;;;;;1.83;1.08;;;;;;;;;;5091849;28;20024;-90
2023/08/18 09:46:47;;;;;;;1.10;1.02;;;;;;;;;;5107693;28;20032;-86
2023/08/18 09:49:16;;;;;;;1.55;1.20;;;;;;;;;;5091985;28;20031;-88
2023/08/18 09:51:46;;;;;;;1.67;1.02;;;;;;;;;;5093362;28;20031;-88
2023/08/18 09:54:12;;;;;;;2.13;1.40;;;;;;;;;;5092248;28;20068;-90
2023/08/18 09:56:39;;;;;;;2.40;1.00;;;;;;;;;;5094379;28;20020;-89
2023/08/18 09:59:27;;;;;;;2.10;1.23;;;;;;;;;;5092958;28;20388;-89
2023/08/18 10:01:53;;;;;;;1.35;1.10;;;;;;;;;;5093603;28;20410;-89
2023/08/18 10:04:23;;;;;;;1.33;1.23;;;;;;;;;;5094113;28;20081;-91
2023/08/18 10:06:50;;;;;;;2.20;1.30;;;;;;;;;;5092552;28;20371;-88
2023/08/18 10:09:16;;;;;;;1.08;0.90;;;;;;;;;;5092395;28;20035;-87
2023/08/18 10:11:42;;;;;;;0.98;0.88;;;;;;;;;;5092726;28;20020;-87
2023/08/18 10:14:08;;;;;;;1.90;1.08;;;;;;;;;;5092403;28;20866;-88
2023/08/18 10:16:35;;;;;;;1.13;1.02;;;;;;;;;;5093328;28;20028;-86
2023/08/18 10:19:00;;;;;;;0.93;0.80;;;;;;;;;;5093368;28;20516;-90
2023/08/18 10:21:27;;;;;;;0.98;0.85;;;;;;;;;;5091737;28;20032;-89
2023/08/18 10:23:53;;;;;;;1.40;1.05;;;;;;;;;;5091744;28;20052;-88
2023/08/18 10:26:18;;;;;;;1.55;1.17;;;;;;;;;;5093830;28;20035;-88
2023/08/18 10:28:46;;;;;;;1.48;1.20;;;;;;;;;;5093482;28;20035;-86
2023/08/18 10:31:14;;;;;;;0.93;0.80;;;;;;;;;;5093267;28;20433;-87
2023/08/18 10:33:49;;;;;;;1.80;1.15;;;;;;;;;;5093668;28;20395;-89
2023/08/18 10:36:25;;;;;;;1.38;0.93;;;;;;;;;;5091972;28;20032;-87
2023/08/18 10:38:54;;;;;;;1.25;1.02;;;;;;;;;;5090347;28;20461;-90
2023/08/18 10:41:28;;;;;;;1.00;0.88;;;;;;;;;;5091298;28;20093;-87
2023/08/18 10:43:58;;;;;;;2.13;1.17;;;;;;;;;;5092379;28;20036;-88
2023/08/18 10:46:36;;;;;;;1.38;1.20;;;;;;;;;;5091895;28;20069;-87
2023/08/18 10:49:02;;;;;;;2.03;1.20;;;;;;;;;;5091898;28;20028;-89
2023/08/18 10:51:28;;;;;;;1.83;1.60;;;;;;;;;;5091954;28;20047;-88
2023/08/18 10:53:54;;;;;;;2.35;1.13;;;;;;;;;;5091132;28;20032;-87
2023/08/18 10:56:22;;;;;;;1.30;1.10;;;;;;;;;;5092520;28;20032;-88
2023/08/18 10:58:48;;;;;;;1.65;1.10;;;;;;;;;;5091599;28;20024;-88
2023/08/18 11:01:15;;;;;;;1.15;0.95;;;;;;;;;;5090627;28;20402;-90
2023/08/18 11:03:41;;;;;;;1.40;1.13;;;;;;;;;;5091802;28;20069;-87
2023/08/18 11:06:06;;;;;;;2.38;1.50;;;;;;;;;;5091593;28;20032;-87
2023/08/18 11:08:32;;;;;;;2.92;1.50;;;;;;;;;;5092883;28;20051;-88
2023/08/18 11:10:58;;;;;;;1.45;1.33;;;;;;;;;;5090582;28;20054;-88
2023/08/18 11:13:28;;;;;;;1.92;1.27;;;;;;;;;;5093455;28;20104;-92
2023/08/18 11:15:56;;;;;;;2.13;1.33;;;;;;;;;;5094073;28;20065;-90
2023/08/18 11:18:25;;;;;;;1.67;1.35;;;;;;;;;;5089638;28;20031;-91
2023/08/18 11:20:51;;;;;;;1.75;1.15;;;;;;;;;;5093170;28;20420;-85
2023/08/18 11:23:18;;;;;;;1.50;1.00;;;;;;;;;;5089058;28;20519;-86
2023/08/18 11:25:44;;;;;;;2.03;1.40;;;;;;;;;;5092447;28;20072;-84
2023/08/18 11:28:09;;;;;;;2.67;1.70;;;;;;;;;;5093050;28;20024;-85
2023/08/18 11:30:35;;;;;;;1.67;1.02;;;;;;;;;;5094546;28;20031;-86
2023/08/18 11:33:00;;;;;;;1.52;1.17;;;;;;;;;;5089092;28;20032;-84
2023/08/18 11:35:26;;;;;;;2.08;1.45;;;;;;;;;;5097074;28;20028;-85
2023/08/18 11:37:53;;;;;;;2.05;1.45;;;;;;;;;;5093728;28;20340;-88
2023/08/18 11:40:20;;;;;;;1.67;1.27;;;;;;;;;;5090806;28;20332;-86
2023/08/18 11:42:48;;;;;;;1.75;1.17;;;;;;;;;;5091278;28;20078;-88
2023/08/18 11:45:19;;;;;;;2.47;1.38;;;;;;;;;;5089938;28;20361;-85
2023/08/18 11:47:46;;;;;;;3.05;1.75;;;;;;;;;;5088165;28;20024;-85
2023/08/18 11:50:19;;;;;;;1.88;1.17;;;;;;;;;;5088448;28;20035;-86
2023/08/18 11:52:46;;;;;;;1.85;1.30;;;;;;;;;;5088326;28;20537;-85
2023/08/18 11:55:13;;;;;;;1.25;1.00;;;;;;;;;;5089561;28;20475;-86
2023/08/18 11:57:41;;;;;;;1.50;1.20;;;;;;;;;;5089873;28;20024;-85
2023/08/18 12:00:13;;;;;;;1.23;1.10;;;;;;;;;;5092153;28;20030;-86
2023/08/18 12:02:44;;;;;;;1.85;1.40;;;;;;;;;;5095605;28;20534;-85
2023/08/18 12:05:23;;;;;;;1.05;0.80;;;;;;;;;;5089406;28;20042;-86
2023/08/18 12:07:52;;;;;;;;;;;;;;;;;;5088219;28;20111;-86
2023/08/18 12:10:22;;;;;;;1.05;0.90;;;;;;;;;;5089824;28;19994;-85
2023/08/18 12:12:55;;;;;;;1.55;1.20;;;;;;;;;;5091757;28;20028;-86
2023/08/18 12:15:23;;;;;;;1.63;1.30;;;;;;;;;;5089390;28;20028;-87
